createdAt,value
2018-04-29T00:00:25.587Z,100852.81
2018-04-29T00:01:29.773Z,100842.83
2018-04-29T00:02:34.400Z,100847.05
2018-04-29T00:03:38.589Z,100849.67
2018-04-29T00:04:43.544Z,100848.71
2018-04-29T00:05:47.727Z,100849.12
2018-04-29T00:06:52.673Z,100844.41
2018-04-29T00:07:57.064Z,100840.62
2018-04-29T00:09:01.997Z,100841.14
2018-04-29T00:10:06.201Z,100842.95
2018-04-29T00:11:11.153Z,100845.00
2018-04-29T00:12:15.328Z,100849.58
2018-04-29T00:13:20.297Z,100846.45
2018-04-29T00:14:24.478Z,100844.33
2018-04-29T00:15:29.461Z,100842.19
2018-04-29T00:16:33.632Z,100843.05
2018-04-29T00:17:38.050Z,100837.89
2018-04-29T00:18:42.250Z,100838.85
2018-04-29T00:19:47.188Z,100839.73
2018-04-29T00:20:51.581Z,100839.81
2018-04-29T00:21:56.531Z,100836.41
2018-04-29T00:23:00.700Z,100838.16
2018-04-29T00:24:04.892Z,100838.64
2018-04-29T00:25:09.075Z,100836.09
2018-04-29T00:26:13.309Z,100834.69
2018-04-29T00:27:17.557Z,100838.97
2018-04-29T00:28:21.683Z,100837.80
2018-04-29T00:29:25.852Z,100839.06
2018-04-29T00:30:30.038Z,100838.68
2018-04-29T00:31:34.232Z,100836.87
2018-04-29T00:32:38.430Z,100842.00
2018-04-29T00:33:42.636Z,100836.91
2018-04-29T00:34:46.817Z,100841.54
2018-04-29T00:35:52.524Z,100833.27
2018-04-29T00:36:56.722Z,100837.56
2018-04-29T00:38:00.915Z,100831.59
2018-04-29T00:39:05.149Z,100830.90
2018-04-29T00:40:09.537Z,100835.78
2018-04-29T00:41:13.712Z,100839.94
2018-04-29T00:42:17.888Z,100832.61
2018-04-29T00:43:22.077Z,100831.01
2018-04-29T00:44:26.273Z,100831.48
2018-04-29T00:45:30.480Z,100829.74
2018-04-29T00:46:35.429Z,100831.01
2018-04-29T00:47:39.646Z,100834.49
2018-04-29T00:48:43.820Z,100826.41
2018-04-29T00:49:48.250Z,100829.84
2018-04-29T00:50:53.253Z,100829.74
2018-04-29T00:52:07.255Z,100829.80
2018-04-29T00:53:11.530Z,100825.36
2018-04-29T00:54:15.703Z,100834.43
2018-04-29T00:55:19.912Z,100828.00
2018-04-29T00:56:24.181Z,100832.36
2018-04-29T00:57:28.379Z,100838.06
2018-04-29T00:58:32.606Z,100830.78
2018-04-29T00:59:36.818Z,100834.05
2018-04-29T01:00:41.034Z,100829.41
2018-04-29T01:01:45.209Z,100823.74
2018-04-29T01:02:50.157Z,100815.09
2018-04-29T01:03:54.430Z,100820.61
2018-04-29T01:04:58.620Z,100810.84
2018-04-29T01:06:02.844Z,100811.31
2018-04-29T01:07:07.013Z,100810.82
2018-04-29T01:08:11.180Z,100809.86
2018-04-29T01:09:15.353Z,100804.39
2018-04-29T01:10:19.798Z,100811.77
2018-04-29T01:11:23.978Z,100816.44
2018-04-29T01:12:28.152Z,100816.41
2018-04-29T01:13:32.328Z,100822.44
2018-04-29T01:14:36.513Z,100822.82
2018-04-29T01:15:40.877Z,100826.31
2018-04-29T01:16:45.077Z,100823.61
2018-04-29T01:17:50.022Z,100818.52
2018-04-29T01:18:54.202Z,100825.75
2018-04-29T01:19:58.376Z,100825.77
2018-04-29T01:21:02.568Z,100821.83
2018-04-29T01:22:06.747Z,100819.77
2018-04-29T01:23:11.757Z,100823.59
2018-04-29T01:24:15.957Z,100821.84
2018-04-29T01:25:20.133Z,100825.59
2018-04-29T01:26:24.304Z,100823.86
2018-04-29T01:27:29.248Z,100815.23
2018-04-29T01:28:33.466Z,100813.52
2018-04-29T01:29:37.692Z,100810.41
2018-04-29T01:30:41.881Z,100821.06
2018-04-29T01:31:46.052Z,100825.69
2018-04-29T01:32:50.233Z,100820.02
2018-04-29T01:33:54.422Z,100817.81
2018-04-29T01:34:58.654Z,100815.79
2018-04-29T01:36:02.837Z,100817.31
2018-04-29T01:37:07.055Z,100819.52
2018-04-29T01:38:11.224Z,100820.59
2018-04-29T01:39:16.169Z,100819.22
2018-04-29T01:40:21.302Z,100822.63
2018-04-29T01:41:26.245Z,100826.44
2018-04-29T01:42:30.421Z,100824.41
2018-04-29T01:43:34.611Z,100820.91
2018-04-29T01:44:38.785Z,100821.39
2018-04-29T01:45:42.989Z,100819.78
2018-04-29T01:46:47.688Z,100814.66
2018-04-29T01:47:52.642Z,100821.19
2018-04-29T01:48:56.832Z,100820.28
2018-04-29T01:50:01.777Z,100819.77
2018-04-29T01:51:05.954Z,100825.36
2018-04-29T01:52:10.604Z,100826.26
2018-04-29T01:53:14.781Z,100826.67
2018-04-29T01:54:18.953Z,100824.97
2018-04-29T01:55:23.154Z,100827.55
2018-04-29T01:56:27.345Z,100833.45
2018-04-29T01:57:31.556Z,100828.83
2018-04-29T01:58:35.776Z,100833.64
2018-04-29T01:59:39.953Z,100829.73
2018-04-29T02:00:44.162Z,100832.27
2018-04-29T02:01:49.097Z,100832.59
2018-04-29T02:02:55.472Z,100828.39
2018-04-29T02:03:59.646Z,100825.42
2018-04-29T02:05:03.856Z,100826.80
2018-04-29T02:06:08.036Z,100821.66
2018-04-29T02:07:12.218Z,100819.48
2018-04-29T02:08:16.424Z,100821.52
2018-04-29T02:09:20.598Z,100821.83
2018-04-29T02:10:26.278Z,100826.48
2018-04-29T02:11:30.457Z,100821.45
2018-04-29T02:12:34.641Z,100825.73
2018-04-29T02:13:39.768Z,100821.05
2018-04-29T02:14:43.945Z,100816.87
2018-04-29T02:15:48.131Z,100812.73
2018-04-29T02:16:52.324Z,100818.75
2018-04-29T02:17:56.537Z,100817.41
2018-04-29T02:19:00.732Z,100819.09
2018-04-29T02:20:05.009Z,100810.06
2018-04-29T02:21:09.189Z,100811.42
2018-04-29T02:22:14.136Z,100809.70
2018-04-29T02:23:18.304Z,100807.91
2018-04-29T02:24:22.618Z,100808.31
2018-04-29T02:25:27.177Z,100811.78
2018-04-29T02:26:31.348Z,100807.14
2018-04-29T02:27:36.289Z,100807.14
2018-04-29T02:28:40.486Z,100810.14
2018-04-29T02:29:45.436Z,100812.19
2018-04-29T02:30:50.410Z,100807.91
2018-04-29T02:31:54.776Z,100804.90
2018-04-29T02:32:59.722Z,100805.28
2018-04-29T02:34:03.906Z,100800.25
2018-04-29T02:35:08.868Z,100798.70
2018-04-29T02:36:13.047Z,100804.75
2018-04-29T02:37:18.502Z,100802.36
2018-04-29T02:38:23.454Z,100804.52
2018-04-29T02:39:27.629Z,100812.20
2018-04-29T02:40:32.590Z,100805.95
2018-04-29T02:41:36.771Z,100804.28
2018-04-29T02:42:42.179Z,100806.00
2018-04-29T02:43:46.371Z,100801.71
2018-04-29T02:44:50.558Z,100806.45
2018-04-29T02:45:54.788Z,100804.69
2018-04-29T02:46:59.086Z,100800.05
2018-04-29T02:48:03.419Z,100801.84
2018-04-29T02:49:07.606Z,100792.03
2018-04-29T02:50:11.781Z,100785.20
2018-04-29T02:51:16.733Z,100779.25
2018-04-29T02:52:20.918Z,100779.33
2018-04-29T02:53:25.885Z,100786.15
2018-04-29T02:54:30.059Z,100779.33
2018-04-29T02:55:35.009Z,100783.19
2018-04-29T02:56:39.396Z,100783.73
2018-04-29T02:57:44.337Z,100785.98
2018-04-29T02:58:49.292Z,100776.56
2018-04-29T02:59:53.470Z,100777.39
2018-04-29T03:00:58.417Z,100781.23
2018-04-29T03:02:02.635Z,100778.34
2018-04-29T03:03:06.834Z,100780.95
2018-04-29T03:04:11.023Z,100779.84
2018-04-29T03:05:16.088Z,100782.97
2018-04-29T03:06:20.261Z,100782.13
2018-04-29T03:07:25.274Z,100783.77
2018-04-29T03:08:29.449Z,100781.66
2018-04-29T03:09:33.623Z,100770.02
2018-04-29T03:10:38.573Z,100769.20
2018-04-29T03:11:42.752Z,100766.33
2018-04-29T03:12:47.708Z,100766.66
2018-04-29T03:13:52.308Z,100762.95
2018-04-29T03:14:57.258Z,100766.30
2018-04-29T03:16:01.430Z,100761.30
2018-04-29T03:17:06.381Z,100763.42
2018-04-29T03:18:10.569Z,100763.55
2018-04-29T03:19:16.026Z,100765.73
2018-04-29T03:20:21.190Z,100772.09
2018-04-29T03:21:25.365Z,100778.09
2018-04-29T03:22:30.318Z,100781.02
2018-04-29T03:23:34.516Z,100789.11
2018-04-29T03:24:38.717Z,100787.38
2018-04-29T03:25:43.670Z,100786.95
2018-04-29T03:26:47.913Z,100789.92
2018-04-29T03:27:52.098Z,100791.62
2018-04-29T03:28:56.265Z,100784.67
2018-04-29T03:30:01.212Z,100777.50
2018-04-29T03:31:06.152Z,100775.81
2018-04-29T03:32:10.380Z,100770.70
2018-04-29T03:33:14.556Z,100766.41
2018-04-29T03:34:19.673Z,100768.15
2018-04-29T03:35:23.844Z,100763.26
2018-04-29T03:36:28.021Z,100759.11
2018-04-29T03:37:32.340Z,100755.77
2018-04-29T03:38:36.525Z,100753.72
2018-04-29T03:39:41.472Z,100755.05
2018-04-29T03:40:45.652Z,100747.37
2018-04-29T03:41:50.603Z,100750.54
2018-04-29T03:42:54.814Z,100744.52
2018-04-29T03:43:58.995Z,100752.44
2018-04-29T03:45:03.174Z,100750.41
2018-04-29T03:46:07.372Z,100750.59
2018-04-29T03:47:11.541Z,100749.76
2018-04-29T03:48:16.500Z,100749.91
2018-04-29T03:49:20.889Z,100740.58
2018-04-29T03:50:25.882Z,100737.77
2018-04-29T03:51:30.061Z,100734.11
2018-04-29T03:52:34.257Z,100735.87
2018-04-29T03:53:38.447Z,100734.30
2018-04-29T03:54:43.429Z,100732.46
2018-04-29T03:55:47.600Z,100733.31
2018-04-29T03:56:51.784Z,100737.64
2018-04-29T03:58:14.550Z,100732.02
2018-04-29T03:59:48.413Z,100718.87
2018-04-29T04:01:10.647Z,100723.22
2018-04-29T04:02:32.676Z,100717.23
2018-04-29T04:03:59.622Z,100719.43
2018-04-29T04:05:03.813Z,100718.70
2018-04-29T04:06:07.993Z,100722.59
2018-04-29T04:07:12.213Z,100727.77
2018-04-29T04:08:16.390Z,100737.33
2018-04-29T04:09:20.585Z,100736.71
2018-04-29T04:10:24.757Z,100735.83
2018-04-29T04:11:28.935Z,100744.38
2018-04-29T04:12:33.109Z,100744.56
2018-04-29T04:13:37.400Z,100744.35
2018-04-29T04:14:41.592Z,100743.50
2018-04-29T04:15:45.818Z,100740.84
2018-04-29T04:16:50.003Z,100745.90
2018-04-29T04:17:54.166Z,100738.69
2018-04-29T04:18:58.343Z,100749.97
2018-04-29T04:20:02.509Z,100749.97
2018-04-29T04:21:07.444Z,100745.37
2018-04-29T04:22:12.445Z,100749.55
2018-04-29T04:23:16.617Z,100750.77
2018-04-29T04:24:20.790Z,100746.77
2018-04-29T04:25:25.742Z,100749.27
2018-04-29T04:26:29.929Z,100752.13
2018-04-29T04:27:34.902Z,100754.59
2018-04-29T04:28:39.082Z,100751.20
2018-04-29T04:29:43.254Z,100752.77
2018-04-29T04:30:47.424Z,100752.20
2018-04-29T04:31:51.604Z,100753.38
2018-04-29T04:32:56.569Z,100756.67
2018-04-29T04:34:00.741Z,100760.88
2018-04-29T04:35:04.954Z,100761.59
2018-04-29T04:36:09.179Z,100762.34
2018-04-29T04:37:13.365Z,100764.44
2018-04-29T04:38:18.501Z,100763.53
2018-04-29T04:39:23.452Z,100765.12
2018-04-29T04:40:27.624Z,100763.39
2018-04-29T04:41:31.805Z,100761.66
2018-04-29T04:42:35.986Z,100758.19
2018-04-29T04:43:40.581Z,100758.14
2018-04-29T04:44:45.520Z,100758.04
2018-04-29T04:45:49.700Z,100763.55
2018-04-29T04:46:54.650Z,100764.40
2018-04-29T04:47:58.865Z,100760.91
2018-04-29T04:49:03.071Z,100754.78
2018-04-29T04:50:07.269Z,100756.05
2018-04-29T04:51:12.418Z,100755.60
2018-04-29T04:52:16.598Z,100754.78
2018-04-29T04:53:20.777Z,100762.87
2018-04-29T04:54:24.948Z,100763.35
2018-04-29T04:55:29.133Z,100762.09
2018-04-29T04:56:34.116Z,100757.33
2018-04-29T04:57:38.293Z,100751.80
2018-04-29T04:58:42.477Z,100753.05
2018-04-29T04:59:46.665Z,100754.73
2018-04-29T05:00:50.875Z,100752.15
2018-04-29T05:01:55.481Z,100753.92
2018-04-29T05:02:59.652Z,100756.91
2018-04-29T05:04:03.825Z,100758.55
2018-04-29T05:05:08.017Z,100761.55
2018-04-29T05:06:12.296Z,100760.60
2018-04-29T05:07:16.900Z,100763.05
2018-04-29T05:08:21.122Z,100759.57
2018-04-29T05:09:25.301Z,100760.41
2018-04-29T05:10:29.490Z,100759.02
2018-04-29T05:11:33.674Z,100760.69
2018-04-29T05:12:37.902Z,100761.92
2018-04-29T05:13:42.134Z,100759.67
2018-04-29T05:14:46.289Z,100755.71
2018-04-29T05:15:50.466Z,100755.59
2018-04-29T05:16:54.644Z,100763.98
2018-04-29T05:17:59.204Z,100764.79
2018-04-29T05:19:04.153Z,100772.37
2018-04-29T05:20:08.333Z,100767.93
2018-04-29T05:21:13.289Z,100768.72
2018-04-29T05:22:17.482Z,100766.84
2018-04-29T05:23:21.743Z,100767.09
2018-04-29T05:24:25.925Z,100772.88
2018-04-29T05:25:30.102Z,100770.17
2018-04-29T05:26:34.273Z,100774.23
2018-04-29T05:27:38.463Z,100775.25
2018-04-29T05:28:42.670Z,100781.02
2018-04-29T05:29:46.845Z,100780.33
2018-04-29T05:30:51.077Z,100779.73
2018-04-29T05:31:55.263Z,100778.67
2018-04-29T05:33:00.216Z,100778.83
2018-04-29T05:34:04.403Z,100779.69
2018-04-29T05:35:09.348Z,100775.57
2018-04-29T05:36:14.286Z,100779.61
2018-04-29T05:37:18.453Z,100775.48
2018-04-29T05:38:22.653Z,100774.58
2018-04-29T05:39:26.919Z,100770.37
2018-04-29T05:40:31.106Z,100778.13
2018-04-29T05:41:36.054Z,100770.70
2018-04-29T05:42:40.360Z,100768.14
2018-04-29T05:43:45.301Z,100765.11
2018-04-29T05:44:49.478Z,100769.31
2018-04-29T05:45:54.470Z,100765.54
2018-04-29T05:46:58.643Z,100771.45
2018-04-29T05:48:02.850Z,100769.16
2018-04-29T05:49:07.032Z,100768.75
2018-04-29T05:50:11.205Z,100764.89
2018-04-29T05:51:15.433Z,100766.39
2018-04-29T05:52:19.623Z,100763.82
2018-04-29T05:53:23.814Z,100763.73
2018-04-29T05:54:27.984Z,100762.48
2018-04-29T05:55:32.169Z,100757.37
2018-04-29T05:56:36.405Z,100766.39
2018-04-29T05:57:42.093Z,100767.96
2018-04-29T05:58:46.264Z,100766.15
2018-04-29T05:59:51.203Z,100767.03
2018-04-29T06:00:56.141Z,100759.30
2018-04-29T06:02:00.558Z,100753.48
2018-04-29T06:03:04.753Z,100752.48
2018-04-29T06:04:09.704Z,100752.89
2018-04-29T06:05:13.876Z,100761.34
2018-04-29T06:06:18.062Z,100766.23
2018-04-29T06:07:22.246Z,100761.02
2018-04-29T06:08:26.453Z,100759.46
2018-04-29T06:09:30.633Z,100770.41
2018-04-29T06:10:35.580Z,100765.59
2018-04-29T06:11:39.888Z,100762.56
2018-04-29T06:12:44.097Z,100759.06
2018-04-29T06:13:48.281Z,100761.98
2018-04-29T06:14:52.453Z,100769.17
2018-04-29T06:15:56.629Z,100768.27
2018-04-29T06:17:01.048Z,100768.22
2018-04-29T06:18:05.243Z,100763.39
2018-04-29T06:19:10.202Z,100762.03
2018-04-29T06:20:14.440Z,100762.30
2018-04-29T06:21:18.594Z,100768.63
2018-04-29T06:22:23.591Z,100761.22
2018-04-29T06:23:27.761Z,100761.02
2018-04-29T06:24:31.947Z,100762.52
2018-04-29T06:25:36.905Z,100761.50
2018-04-29T06:26:41.111Z,100763.89
2018-04-29T06:27:45.711Z,100761.83
2018-04-29T06:28:50.653Z,100759.58
2018-04-29T06:29:54.824Z,100763.30
2018-04-29T06:30:58.993Z,100757.27
2018-04-29T06:32:03.231Z,100757.68
2018-04-29T06:33:07.490Z,100752.66
2018-04-29T06:34:12.431Z,100756.06
2018-04-29T06:35:16.622Z,100739.19
2018-04-29T06:36:20.797Z,100748.58
2018-04-29T06:37:24.968Z,100747.03
2018-04-29T06:38:29.189Z,100749.36
2018-04-29T06:39:33.365Z,100747.83
2018-04-29T06:40:39.827Z,100747.90
2018-04-29T06:41:44.046Z,100747.22
2018-04-29T06:42:48.266Z,100757.84
2018-04-29T06:43:52.654Z,100754.24
2018-04-29T06:44:57.613Z,100756.20
2018-04-29T06:46:01.857Z,100754.08
2018-04-29T06:47:06.009Z,100749.44
2018-04-29T06:48:10.230Z,100751.93
2018-04-29T06:49:14.528Z,100747.03
2018-04-29T06:50:19.482Z,100743.97
2018-04-29T06:51:23.663Z,100747.58
2018-04-29T06:52:28.687Z,100747.63
2018-04-29T06:53:33.723Z,100742.94
2018-04-29T06:54:38.252Z,100746.83
2018-04-29T06:55:42.464Z,100747.60
2018-04-29T06:56:46.639Z,100749.64
2018-04-29T06:57:50.813Z,100744.17
2018-04-29T06:58:55.009Z,100740.97
2018-04-29T06:59:59.460Z,100745.58
2018-04-29T07:01:03.636Z,100742.11
2018-04-29T07:02:07.833Z,100744.89
2018-04-29T07:03:12.001Z,100740.67
2018-04-29T07:04:16.182Z,100737.69
2018-04-29T07:05:20.588Z,100742.89
2018-04-29T07:06:24.793Z,100741.73
2018-04-29T07:07:28.965Z,100736.91
2018-04-29T07:08:33.137Z,100733.67
2018-04-29T07:09:37.309Z,100738.87
2018-04-29T07:10:41.524Z,100734.86
2018-04-29T07:11:45.712Z,100736.28
2018-04-29T07:12:50.644Z,100731.45
2018-04-29T07:13:55.642Z,100738.64
2018-04-29T07:14:59.818Z,100736.83
2018-04-29T07:16:04.217Z,100731.70
2018-04-29T07:17:08.409Z,100745.53
2018-04-29T07:18:13.353Z,100745.53
2018-04-29T07:19:17.521Z,100743.34
2018-04-29T07:20:22.170Z,100739.11
2018-04-29T07:21:26.889Z,100732.07
2018-04-29T07:22:31.824Z,100728.94
2018-04-29T07:23:36.015Z,100723.34
2018-04-29T07:24:40.948Z,100726.66
2018-04-29T07:25:45.894Z,100727.03
2018-04-29T07:26:50.084Z,100725.21
2018-04-29T07:27:54.262Z,100726.41
2018-04-29T07:28:58.456Z,100728.37
2018-04-29T07:30:02.633Z,100732.42
2018-04-29T07:31:06.813Z,100735.79
2018-04-29T07:32:10.984Z,100735.10
2018-04-29T07:33:15.192Z,100741.70
2018-04-29T07:34:19.481Z,100739.59
2018-04-29T07:35:23.689Z,100738.11
2018-04-29T07:36:27.872Z,100741.95
2018-04-29T07:37:32.109Z,100743.38
2018-04-29T07:38:36.286Z,100735.96
2018-04-29T07:39:41.965Z,100734.84
2018-04-29T07:40:46.216Z,100731.62
2018-04-29T07:41:50.384Z,100735.13
2018-04-29T07:42:54.565Z,100727.67
2018-04-29T07:43:58.740Z,100724.28
2018-04-29T07:45:02.928Z,100723.06
2018-04-29T07:46:07.317Z,100721.34
2018-04-29T07:47:12.259Z,100719.70
2018-04-29T07:48:16.433Z,100720.30
2018-04-29T07:49:20.678Z,100714.13
2018-04-29T07:50:25.124Z,100718.67
2018-04-29T07:51:29.428Z,100718.73
2018-04-29T07:52:33.685Z,100717.63
2018-04-29T07:53:37.826Z,100720.11
2018-04-29T07:54:42.141Z,100717.89
2018-04-29T07:55:46.418Z,100712.73
2018-04-29T07:56:51.458Z,100711.41
2018-04-29T07:57:56.433Z,100712.45
2018-04-29T07:59:02.713Z,100711.37
2018-04-29T08:00:09.398Z,100705.92
2018-04-29T08:01:13.665Z,100706.61
2018-04-29T08:02:18.069Z,100700.45
2018-04-29T08:03:22.251Z,100706.03
2018-04-29T08:04:27.274Z,100707.08
2018-04-29T08:05:31.548Z,100702.08
2018-04-29T08:06:35.766Z,100706.46
2018-04-29T08:07:40.006Z,100704.95
2018-04-29T08:08:44.230Z,100706.03
2018-04-29T08:09:48.439Z,100702.73
2018-04-29T08:10:52.611Z,100704.41
2018-04-29T08:11:56.790Z,100708.52
2018-04-29T08:13:01.006Z,100695.86
2018-04-29T08:14:05.177Z,100694.67
2018-04-29T08:15:09.354Z,100701.75
2018-04-29T08:16:13.532Z,100698.09
2018-04-29T08:17:17.718Z,100694.56
2018-04-29T08:18:22.711Z,100700.02
2018-04-29T08:19:26.904Z,100698.44
2018-04-29T08:20:31.153Z,100699.59
2018-04-29T08:21:35.342Z,100700.71
2018-04-29T08:22:39.623Z,100696.25
2018-04-29T08:23:43.742Z,100700.88
2018-04-29T08:24:47.953Z,100702.97
2018-04-29T08:25:52.157Z,100704.40
2018-04-29T08:26:56.385Z,100707.09
2018-04-29T08:28:00.558Z,100708.89
2018-04-29T08:29:04.741Z,100712.59
2018-04-29T08:30:09.856Z,100707.98
2018-04-29T08:31:14.009Z,100708.66
2018-04-29T08:32:18.178Z,100712.53
2018-04-29T08:33:22.373Z,100709.52
2018-04-29T08:34:26.709Z,100710.12
2018-04-29T08:35:30.918Z,100707.53
2018-04-29T08:36:35.136Z,100709.86
2018-04-29T08:37:39.319Z,100716.88
2018-04-29T08:38:43.533Z,100708.97
2018-04-29T08:39:47.880Z,100711.78
2018-04-29T08:40:52.835Z,100708.21
2018-04-29T08:41:57.114Z,100714.97
2018-04-29T08:43:01.234Z,100716.06
2018-04-29T08:44:06.225Z,100718.93
2018-04-29T08:45:10.420Z,100714.95
2018-04-29T08:46:14.628Z,100713.39
2018-04-29T08:47:18.822Z,100711.23
2018-04-29T08:48:23.029Z,100711.23
2018-04-29T08:49:27.305Z,100711.08
2018-04-29T08:50:31.545Z,100709.95
2018-04-29T08:51:35.749Z,100707.91
2018-04-29T08:52:39.996Z,100708.60
2018-04-29T08:53:44.197Z,100707.17
2018-04-29T08:54:48.592Z,100701.95
2018-04-29T08:55:52.774Z,100698.80
2018-04-29T08:56:56.969Z,100697.68
2018-04-29T08:58:01.935Z,100699.27
2018-04-29T08:59:06.118Z,100702.82
2018-04-29T09:00:10.758Z,100691.45
2018-04-29T09:01:15.700Z,100693.60
2018-04-29T09:02:19.934Z,100687.05
2018-04-29T09:03:24.135Z,100678.45
2018-04-29T09:04:28.296Z,100678.55
2018-04-29T09:05:33.321Z,100679.70
2018-04-29T09:06:37.598Z,100679.67
2018-04-29T09:07:41.773Z,100673.85
2018-04-29T09:08:45.944Z,100677.13
2018-04-29T09:09:50.113Z,100678.20
2018-04-29T09:10:54.355Z,100677.81
2018-04-29T09:11:58.530Z,100681.77
2018-04-29T09:13:02.801Z,100674.19
2018-04-29T09:14:06.971Z,100673.61
2018-04-29T09:15:11.153Z,100674.55
2018-04-29T09:16:15.393Z,100675.55
2018-04-29T09:17:19.757Z,100668.03
2018-04-29T09:18:24.716Z,100669.15
2018-04-29T09:19:28.913Z,100666.20
2018-04-29T09:20:33.080Z,100668.00
2018-04-29T09:21:37.414Z,100664.26
2018-04-29T09:22:41.817Z,100663.65
2018-04-29T09:23:46.097Z,100667.06
2018-04-29T09:24:50.302Z,100662.86
2018-04-29T09:25:54.501Z,100668.47
2018-04-29T09:26:58.685Z,100667.78
2018-04-29T09:28:03.675Z,100675.26
2018-04-29T09:29:07.873Z,100672.60
2018-04-29T09:30:12.110Z,100671.73
2018-04-29T09:31:17.137Z,100670.87
2018-04-29T09:32:22.821Z,100667.78
2018-04-29T09:33:27.020Z,100662.39
2018-04-29T09:34:32.164Z,100663.21
2018-04-29T09:35:36.342Z,100667.02
2018-04-29T09:36:42.048Z,100664.13
2018-04-29T09:37:46.318Z,100668.44
2018-04-29T09:38:50.510Z,100668.44
2018-04-29T09:39:55.661Z,100663.37
2018-04-29T09:41:00.605Z,100662.97
2018-04-29T09:42:04.793Z,100668.81
2018-04-29T09:43:09.725Z,100663.85
2018-04-29T09:44:13.897Z,100678.58
2018-04-29T09:45:18.088Z,100676.81
2018-04-29T09:46:22.297Z,100667.54
2018-04-29T09:47:26.512Z,100667.28
2018-04-29T09:48:30.682Z,100671.36
2018-04-29T09:49:34.869Z,100672.80
2018-04-29T09:50:39.830Z,100675.81
2018-04-29T09:51:44.776Z,100678.06
2018-04-29T09:52:49.005Z,100676.31
2018-04-29T09:53:53.185Z,100679.52
2018-04-29T09:54:57.357Z,100683.38
2018-04-29T09:56:01.523Z,100681.78
2018-04-29T09:57:05.707Z,100687.84
2018-04-29T09:58:11.041Z,100689.93
2018-04-29T09:59:15.216Z,100684.43
2018-04-29T10:00:27.010Z,100690.56
2018-04-29T10:01:36.518Z,100687.44
2018-04-29T10:02:46.016Z,100686.02
2018-04-29T10:03:50.421Z,100685.74
2018-04-29T10:04:55.368Z,100684.25
2018-04-29T10:05:59.549Z,100676.60
2018-04-29T10:07:04.485Z,100670.77
2018-04-29T10:08:09.436Z,100670.77
2018-04-29T10:09:13.672Z,100669.84
2018-04-29T10:10:17.856Z,100661.83
2018-04-29T10:11:22.055Z,100662.03
2018-04-29T10:12:26.237Z,100658.13
2018-04-29T10:13:31.921Z,100661.70
2018-04-29T10:14:36.414Z,100655.68
2018-04-29T10:15:41.358Z,100656.97
2018-04-29T10:16:45.639Z,100653.03
2018-04-29T10:17:50.575Z,100661.91
2018-04-29T10:18:55.570Z,100661.08
2018-04-29T10:20:00.140Z,100662.34
2018-04-29T10:21:04.346Z,100662.58
2018-04-29T10:22:08.573Z,100663.93
2018-04-29T10:23:12.758Z,100664.49
2018-04-29T10:24:17.716Z,100659.59
2018-04-29T10:25:22.109Z,100658.86
2018-04-29T10:26:26.305Z,100660.81
2018-04-29T10:27:31.260Z,100663.34
2018-04-29T10:29:51.574Z,100667.02
2018-04-29T10:30:55.774Z,100667.77
2018-04-29T10:31:59.937Z,100667.57
2018-04-29T10:33:04.288Z,100663.56
2018-04-29T10:34:08.414Z,100660.91
2018-04-29T10:35:12.610Z,100649.54
2018-04-29T10:36:16.838Z,100647.45
2018-04-29T10:37:21.018Z,100649.14
2018-04-29T10:38:25.953Z,100641.36
2018-04-29T10:39:30.886Z,100640.92
2018-04-29T10:40:35.054Z,100632.70
2018-04-29T10:41:40.784Z,100629.22
2018-04-29T10:42:44.972Z,100631.38
2018-04-29T10:43:49.148Z,100623.16
2018-04-29T10:44:54.094Z,100624.55
2018-04-29T10:45:58.260Z,100625.19
2018-04-29T10:47:04.348Z,100619.27
2018-04-29T10:48:09.299Z,100627.45
2018-04-29T10:49:13.481Z,100635.16
2018-04-29T10:50:18.434Z,100630.79
2018-04-29T10:51:22.607Z,100637.52
2018-04-29T10:52:27.849Z,100630.69
2018-04-29T10:53:31.964Z,100630.06
2018-04-29T10:54:36.928Z,100622.70
2018-04-29T10:55:41.113Z,100623.02
2018-04-29T10:56:46.121Z,100618.91
2018-04-29T10:57:50.453Z,100615.55
2018-04-29T10:58:54.650Z,100615.63
2018-04-29T10:59:59.590Z,100614.98
2018-04-29T11:01:04.528Z,100618.66
2018-04-29T11:02:08.732Z,100619.76
2018-04-29T11:03:13.092Z,100624.38
2018-04-29T11:04:17.355Z,100618.44
2018-04-29T11:05:21.466Z,100622.34
2018-04-29T11:06:25.633Z,100620.91
2018-04-29T11:07:29.805Z,100626.87
2018-04-29T11:08:34.181Z,100626.17
2018-04-29T11:09:39.180Z,100626.77
2018-04-29T11:10:43.313Z,100628.78
2018-04-29T11:11:48.284Z,100620.34
2018-04-29T11:12:52.497Z,100617.11
2018-04-29T11:13:56.729Z,100615.06
2018-04-29T11:15:00.964Z,100614.70
2018-04-29T11:16:05.158Z,100614.15
2018-04-29T11:17:09.328Z,100614.89
2018-04-29T11:18:13.531Z,100606.98
2018-04-29T11:19:17.732Z,100607.66
2018-04-29T11:20:22.859Z,100608.28
2018-04-29T11:21:27.879Z,100604.23
2018-04-29T11:22:32.017Z,100599.36
2018-04-29T11:23:36.229Z,100591.21
2018-04-29T11:24:40.408Z,100588.92
2018-04-29T11:25:45.395Z,100585.58
2018-04-29T11:26:49.573Z,100577.86
2018-04-29T11:27:53.752Z,100576.03
2018-04-29T11:28:57.935Z,100567.66
2018-04-29T11:30:02.143Z,100565.78
2018-04-29T11:31:06.364Z,100563.30
2018-04-29T11:32:10.634Z,100569.16
2018-04-29T11:33:14.837Z,100573.40
2018-04-29T11:34:19.058Z,100574.47
2018-04-29T11:35:23.270Z,100575.62
2018-04-29T11:36:27.484Z,100575.77
2018-04-29T11:37:31.691Z,100582.77
2018-04-29T11:38:35.860Z,100576.67
2018-04-29T11:39:40.840Z,100574.12
2018-04-29T11:40:45.034Z,100570.14
2018-04-29T11:41:49.434Z,100565.03
2018-04-29T11:42:54.386Z,100559.19
2018-04-29T11:43:58.575Z,100561.16
2018-04-29T11:45:03.538Z,100555.89
2018-04-29T11:46:07.818Z,100551.75
2018-04-29T11:47:12.924Z,100549.56
2018-04-29T11:48:17.983Z,100541.23
2018-04-29T11:49:22.299Z,100543.97
2018-04-29T11:50:26.506Z,100543.22
2018-04-29T11:51:30.831Z,100546.16
2018-04-29T11:52:36.304Z,100549.29
2018-04-29T11:53:40.538Z,100539.92
2018-04-29T11:54:46.225Z,100540.17
2018-04-29T11:55:50.413Z,100536.15
2018-04-29T11:56:54.722Z,100534.34
2018-04-29T11:57:59.927Z,100539.84
2018-04-29T11:59:04.186Z,100528.89
2018-04-29T12:00:08.402Z,100527.34
2018-04-29T12:01:12.642Z,100526.88
2018-04-29T12:02:16.820Z,100523.75
2018-04-29T12:03:21.213Z,100521.09
2018-04-29T12:04:26.869Z,100522.98
2018-04-29T12:05:31.901Z,100522.90
2018-04-29T12:06:36.837Z,100526.41
2018-04-29T12:07:41.014Z,100519.89
2018-04-29T12:08:45.209Z,100518.63
2018-04-29T12:09:49.434Z,100519.00
2018-04-29T12:10:53.609Z,100519.30
2018-04-29T12:11:57.777Z,100516.41
2018-04-29T12:13:02.711Z,100517.23
2018-04-29T12:14:07.657Z,100513.64
2018-04-29T12:15:11.858Z,100505.13
2018-04-29T12:16:16.077Z,100504.34
2018-04-29T12:17:20.276Z,100501.67
2018-04-29T12:18:24.456Z,100504.61